createdAt,value
2017-12-11T00:01:22.524Z,97600.67
2017-12-11T00:03:51.568Z,97607.59
2017-12-11T00:06:20.149Z,97593.12
2017-12-11T00:08:48.819Z,97591.34
2017-12-11T00:11:17.484Z,97595.38
2017-12-11T00:13:46.288Z,97587.70
2017-12-11T00:16:17.414Z,97583.97
2017-12-11T00:18:46.129Z,97578.63
2017-12-11T00:21:14.906Z,97575.27
2017-12-11T00:23:43.427Z,97576.97
2017-12-11T00:26:12.058Z,97565.91
2017-12-11T00:28:40.867Z,97573.57
2017-12-11T00:31:09.443Z,97573.23
2017-12-11T00:33:38.053Z,97580.33
2017-12-11T00:36:06.781Z,97578.79
2017-12-11T00:38:35.455Z,97575.16
2017-12-11T00:41:04.311Z,97576.25
2017-12-11T00:43:32.960Z,97573.16
2017-12-11T00:46:01.680Z,97573.49
2017-12-11T00:48:30.331Z,97581.28
2017-12-11T00:50:58.911Z,97572.16
2017-12-11T00:53:27.707Z,97571.58
2017-12-11T00:55:56.320Z,97573.36
2017-12-11T00:58:25.076Z,97577.77
2017-12-11T01:00:53.985Z,97576.98
2017-12-11T01:03:22.865Z,97578.42
2017-12-11T01:05:51.584Z,97583.77
2017-12-11T01:08:20.300Z,97572.27
2017-12-11T01:10:49.073Z,97566.12
2017-12-11T01:13:17.849Z,97566.36
2017-12-11T01:15:46.596Z,97570.59
2017-12-11T01:18:15.394Z,97574.16
2017-12-11T01:20:44.100Z,97577.48
2017-12-11T01:23:12.785Z,97571.40
2017-12-11T01:25:41.699Z,97569.03
2017-12-11T01:28:10.531Z,97575.05
2017-12-11T01:30:39.096Z,97574.80
2017-12-11T01:33:07.904Z,97571.27
2017-12-11T01:35:36.612Z,97577.84
2017-12-11T01:38:05.491Z,97573.36
2017-12-11T01:40:34.031Z,97575.93
2017-12-11T01:43:02.856Z,97580.86
2017-12-11T01:45:31.578Z,97579.05
2017-12-11T01:48:00.508Z,97576.69
2017-12-11T01:50:29.028Z,97578.94
2017-12-11T01:52:57.646Z,97588.09
2017-12-11T01:55:26.540Z,97585.09
2017-12-11T01:57:55.212Z,97592.13
2017-12-11T02:00:23.936Z,97582.40
2017-12-11T02:02:52.765Z,97583.47
2017-12-11T02:05:21.303Z,97591.02
2017-12-11T02:07:50.136Z,97601.16
2017-12-11T02:10:18.848Z,97610.61
2017-12-11T02:12:47.585Z,97609.47
2017-12-11T02:15:16.284Z,97606.89
2017-12-11T02:17:44.903Z,97616.42
2017-12-11T02:20:13.840Z,97623.00
2017-12-11T02:22:42.654Z,97625.98
2017-12-11T02:25:11.348Z,97623.66
2017-12-11T02:27:40.144Z,97622.47
2017-12-11T02:30:09.070Z,97628.21
2017-12-11T02:32:37.799Z,97631.59
2017-12-11T02:35:06.527Z,97633.81
2017-12-11T02:37:35.224Z,97642.92
2017-12-11T02:40:04.105Z,97638.77
2017-12-11T02:42:32.949Z,97637.19
2017-12-11T02:45:01.541Z,97633.26
2017-12-11T02:47:30.166Z,97645.52
2017-12-11T02:49:58.892Z,97643.41
2017-12-11T02:52:27.735Z,97648.37
2017-12-11T02:54:56.380Z,97649.36
2017-12-11T02:57:24.952Z,97649.62
2017-12-11T02:59:53.563Z,97661.72
2017-12-11T03:02:22.081Z,97658.34
2017-12-11T03:04:50.747Z,97656.58
2017-12-11T03:07:19.488Z,97671.85
2017-12-11T03:09:48.096Z,97655.05
2017-12-11T03:12:16.812Z,97665.38
2017-12-11T03:14:45.740Z,97658.83
2017-12-11T03:17:14.408Z,97668.56
2017-12-11T03:19:43.044Z,97664.81
2017-12-11T03:22:11.591Z,97667.55
2017-12-11T03:24:40.237Z,97662.41
2017-12-11T03:27:08.956Z,97667.38
2017-12-11T03:29:37.610Z,97673.14
2017-12-11T03:32:06.503Z,97673.14
2017-12-11T03:34:35.364Z,97679.30
2017-12-11T03:37:04.060Z,97686.67
2017-12-11T03:39:32.936Z,97708.10
2017-12-11T03:42:01.649Z,97707.66
2017-12-11T03:44:30.344Z,97715.83
2017-12-11T03:46:59.216Z,97721.41
2017-12-11T03:49:27.897Z,97720.22
2017-12-11T03:51:56.801Z,97723.41
2017-12-11T03:54:25.643Z,97733.56
2017-12-11T03:56:54.152Z,97732.77
2017-12-11T03:59:23.034Z,97724.05
2017-12-11T04:01:51.565Z,97734.71
2017-12-11T04:04:20.393Z,97741.50
2017-12-11T04:06:49.000Z,97750.25
2017-12-11T04:09:17.604Z,97770.21
2017-12-11T04:11:46.311Z,97794.20
2017-12-11T04:14:14.935Z,97812.98
2017-12-11T04:16:43.484Z,97817.20
2017-12-11T04:19:12.292Z,97831.86
2017-12-11T04:21:41.203Z,97839.53
2017-12-11T04:24:09.884Z,97851.05
2017-12-11T04:26:38.428Z,97870.07
2017-12-11T04:29:07.043Z,97881.19
2017-12-11T04:31:35.619Z,97881.58
2017-12-11T04:34:04.432Z,97891.69
2017-12-11T04:36:33.128Z,97893.46
2017-12-11T04:39:01.824Z,97913.89
2017-12-11T04:41:30.725Z,97918.25
2017-12-11T04:43:59.587Z,97927.52
2017-12-11T04:46:28.106Z,97936.64
2017-12-11T04:48:56.765Z,97950.73
2017-12-11T04:51:25.326Z,97957.25
2017-12-11T04:53:54.100Z,97968.75
2017-12-11T04:56:22.604Z,97981.64
2017-12-11T04:58:51.474Z,98001.03
2017-12-11T05:04:15.558Z,98001.75
2017-12-11T05:06:44.114Z,98004.90
2017-12-11T05:09:12.597Z,98008.41
2017-12-11T05:11:41.169Z,98018.87
2017-12-11T05:14:09.634Z,98026.20
2017-12-11T05:16:38.140Z,98032.95
2017-12-11T05:19:06.630Z,98039.49
2017-12-11T05:21:35.226Z,98041.08
2017-12-11T05:24:03.709Z,98048.58
2017-12-11T05:26:32.219Z,98048.77
2017-12-11T05:29:00.962Z,98060.28
2017-12-11T05:31:29.485Z,98066.42
2017-12-11T05:33:58.005Z,98062.65
2017-12-11T05:36:26.505Z,98057.94
2017-12-11T05:38:54.999Z,98047.63
2017-12-11T05:41:23.570Z,98031.36
2017-12-11T05:43:52.066Z,98039.89
2017-12-11T05:46:20.745Z,98047.23
2017-12-11T05:48:49.222Z,98040.49
2017-12-11T05:51:17.908Z,98038.31
2017-12-11T05:53:46.544Z,98053.78
2017-12-11T05:56:15.591Z,98051.80
2017-12-11T05:58:44.076Z,98065.87
2017-12-11T06:01:12.897Z,98068.05
2017-12-11T06:03:41.476Z,98085.22
2017-12-11T06:06:10.005Z,98085.99
2017-12-11T06:08:38.456Z,98082.17
2017-12-11T06:11:06.954Z,98081.53
2017-12-11T06:13:35.484Z,98088.63
2017-12-11T06:16:04.094Z,98090.60
2017-12-11T06:18:32.530Z,98094.95
2017-12-11T06:21:01.638Z,98103.25
2017-12-11T06:23:30.108Z,98107.61
2017-12-11T06:25:58.634Z,98119.46
2017-12-11T06:28:27.093Z,98132.16
2017-12-11T06:30:55.606Z,98144.45
2017-12-11T06:33:24.049Z,98156.76
2017-12-11T06:35:52.561Z,98163.50
2017-12-11T06:38:21.008Z,98170.81
2017-12-11T06:40:49.527Z,98171.01
2017-12-11T06:43:18.016Z,98191.24
2017-12-11T06:45:46.720Z,98194.62
2017-12-11T06:48:15.149Z,98197.36
2017-12-11T06:50:43.694Z,98204.45
2017-12-11T06:53:12.804Z,98213.78
2017-12-11T06:55:41.325Z,98215.00
2017-12-11T06:58:09.904Z,98210.01
2017-12-11T07:00:38.390Z,98211.40
2017-12-11T07:03:06.841Z,98214.17
2017-12-11T07:05:35.604Z,98212.79
2017-12-11T07:08:04.476Z,98215.16
2017-12-11T07:10:32.989Z,98215.76
2017-12-11T07:13:01.442Z,98209.80
2017-12-11T07:15:29.937Z,98221.52
2017-12-11T07:17:58.416Z,98226.47
2017-12-11T07:20:26.917Z,98233.02
2017-12-11T07:22:55.556Z,98232.03
2017-12-11T07:25:24.079Z,98243.11
2017-12-11T07:27:52.750Z,98256.20
2017-12-11T07:30:21.450Z,98247.66
2017-12-11T07:32:50.228Z,98242.45
2017-12-11T07:35:18.737Z,98245.23
2017-12-11T07:37:47.369Z,98247.42
2017-12-11T07:40:15.828Z,98238.48
2017-12-11T07:42:44.605Z,98246.19
2017-12-11T07:45:13.167Z,98246.98
2017-12-11T07:47:41.625Z,98238.84
2017-12-11T07:50:10.345Z,98255.13
2017-12-11T07:52:38.949Z,98250.73
2017-12-11T07:55:07.462Z,98248.34
2017-12-11T07:57:35.942Z,98251.36
2017-12-11T08:00:04.453Z,98258.11
2017-12-11T08:02:32.947Z,98273.56
2017-12-11T08:05:01.410Z,98283.28
2017-12-11T08:07:29.941Z,98284.47
2017-12-11T08:09:58.373Z,98281.54
2017-12-11T08:12:26.924Z,98276.88
2017-12-11T08:14:55.412Z,98279.70
2017-12-11T08:17:23.935Z,98279.45
2017-12-11T08:19:52.543Z,98275.03
2017-12-11T08:22:21.210Z,98287.09
2017-12-11T08:24:49.681Z,98294.84
2017-12-11T08:27:18.196Z,98302.39
2017-12-11T08:29:46.658Z,98311.63
2017-12-11T08:32:15.198Z,98312.23
2017-12-11T08:34:43.785Z,98304.13
2017-12-11T08:37:12.458Z,98305.52
2017-12-11T08:39:40.891Z,98297.73
2017-12-11T08:42:09.620Z,98309.44
2017-12-11T08:44:38.095Z,98316.05
2017-12-11T08:47:06.799Z,98318.09
2017-12-11T08:49:35.465Z,98308.46
2017-12-11T08:52:04.001Z,98304.34
2017-12-11T08:54:32.618Z,98304.62
2017-12-11T08:57:01.162Z,98299.82
2017-12-11T08:59:29.806Z,98308.60
2017-12-11T09:01:58.269Z,98317.09
2017-12-11T09:04:26.771Z,98319.09
2017-12-11T09:06:55.250Z,98324.64
2017-12-11T09:09:24.225Z,98335.88
2017-12-11T09:11:53.154Z,98329.69
2017-12-11T09:14:21.664Z,98330.52
2017-12-11T09:16:50.239Z,98329.64
2017-12-11T09:19:18.921Z,98344.05
2017-12-11T09:21:47.816Z,98358.02
2017-12-11T09:24:16.292Z,98370.08
2017-12-11T09:26:45.183Z,98368.09
2017-12-11T09:29:13.640Z,98378.17
2017-12-11T09:31:42.348Z,98375.58
2017-12-11T09:34:10.819Z,98381.70
2017-12-11T09:36:39.312Z,98393.48
2017-12-11T09:39:07.958Z,98387.77
2017-12-11T09:41:36.667Z,98376.77
2017-12-11T09:44:05.521Z,98371.22
2017-12-11T09:46:34.562Z,98379.96
2017-12-11T09:49:03.834Z,98371.34
2017-12-11T09:51:32.338Z,98366.83
2017-12-11T09:54:00.977Z,98353.38
2017-12-11T09:56:29.590Z,98331.63
2017-12-11T09:58:58.283Z,98341.77
2017-12-11T10:01:26.962Z,98359.02
2017-12-11T10:03:55.663Z,98344.45
2017-12-11T10:06:24.350Z,98352.09
2017-12-11T10:08:52.978Z,98353.01
2017-12-11T10:11:21.952Z,98342.88
2017-12-11T10:13:51.751Z,98347.95
2017-12-11T10:16:20.757Z,98348.07
2017-12-11T10:18:50.171Z,98334.53
2017-12-11T10:21:19.214Z,98340.14
2017-12-11T10:23:48.102Z,98340.92
2017-12-11T10:26:16.624Z,98324.00
2017-12-11T10:28:45.063Z,98325.23
2017-12-11T10:31:13.981Z,98349.13
2017-12-11T10:33:42.426Z,98354.00
2017-12-11T10:36:10.982Z,98353.19
2017-12-11T10:38:39.524Z,98350.41
2017-12-11T10:41:08.767Z,98337.14
2017-12-11T10:43:37.510Z,98323.33
2017-12-11T10:46:06.083Z,98331.39
2017-12-11T10:48:34.549Z,98337.42
2017-12-11T10:51:03.095Z,98338.94
2017-12-11T10:53:31.689Z,98342.27
2017-12-11T10:56:00.167Z,98328.05
2017-12-11T10:58:28.733Z,98329.92
2017-12-11T11:00:57.233Z,98331.45
2017-12-11T11:03:25.810Z,98339.30
2017-12-11T11:05:54.298Z,98319.92
2017-12-11T11:08:22.993Z,98319.92
2017-12-11T11:10:51.475Z,98319.91
2017-12-11T11:13:19.944Z,98317.33
2017-12-11T11:15:48.427Z,98311.30
2017-12-11T11:18:16.917Z,98314.08
2017-12-11T11:20:45.426Z,98309.17
2017-12-11T11:23:13.985Z,98310.18
2017-12-11T11:25:42.506Z,98302.03
2017-12-11T11:28:11.018Z,98304.83
2017-12-11T11:30:39.537Z,98302.44
2017-12-11T11:33:08.201Z,98295.20
2017-12-11T11:35:36.686Z,98301.37
2017-12-11T11:38:05.354Z,98301.98
2017-12-11T11:40:33.856Z,98309.13
2017-12-11T11:43:02.322Z,98293.90
2017-12-11T11:45:30.833Z,98290.32
2017-12-11T11:47:59.308Z,98293.16
2017-12-11T11:50:28.006Z,98293.16
2017-12-11T11:52:56.501Z,98278.64
2017-12-11T11:55:25.179Z,98258.77
2017-12-11T11:57:53.869Z,98260.61
2017-12-11T12:00:22.592Z,98250.08
2017-12-11T12:02:51.081Z,98240.74
2017-12-11T12:05:19.700Z,98233.98
2017-12-11T12:07:48.164Z,98241.41
2017-12-11T12:10:16.667Z,98240.01
2017-12-11T12:12:47.069Z,98226.09
2017-12-11T12:15:15.585Z,98231.86
2017-12-11T12:17:44.041Z,98246.44
2017-12-11T12:20:12.641Z,98233.31
2017-12-11T12:22:41.238Z,98228.14
2017-12-11T12:25:09.733Z,98220.80
2017-12-11T12:27:38.208Z,98229.95
2017-12-11T12:30:06.768Z,98230.22
2017-12-11T12:32:35.222Z,98221.21
2017-12-11T12:35:03.677Z,98225.84
2017-12-11T12:37:32.148Z,98236.57
2017-12-11T12:40:00.664Z,98230.02
2017-12-11T12:42:29.568Z,98237.58
2017-12-11T12:44:58.016Z,98236.19
2017-12-11T12:47:26.549Z,98228.29
2017-12-11T12:49:55.056Z,98222.28
2017-12-11T12:52:23.693Z,98226.85
2017-12-11T12:54:52.143Z,98219.50
2017-12-11T12:57:20.666Z,98222.52
2017-12-11T12:59:49.120Z,98235.27
2017-12-11T13:02:17.634Z,98216.42
2017-12-11T13:04:46.192Z,98219.02
2017-12-11T13:07:14.794Z,98215.41
2017-12-11T13:09:44.472Z,98192.62
2017-12-11T13:12:12.981Z,98178.84
2017-12-11T13:14:41.641Z,98177.64
2017-12-11T13:17:10.681Z,98176.27
2017-12-11T13:19:39.217Z,98182.62
2017-12-11T13:22:07.665Z,98178.31
2017-12-11T13:24:36.160Z,98169.94
2017-12-11T13:27:04.633Z,98163.52
2017-12-11T13:29:33.341Z,98160.38
2017-12-11T13:32:02.052Z,98153.72
2017-12-11T13:34:30.725Z,98137.09
2017-12-11T13:36:59.545Z,98148.83
2017-12-11T13:39:28.310Z,98132.72
2017-12-11T13:41:56.809Z,98120.33
2017-12-11T13:44:25.473Z,98123.52
2017-12-11T13:46:54.174Z,98120.23
2017-12-11T13:49:22.731Z,98124.70
2017-12-11T13:51:51.547Z,98117.31
2017-12-11T13:54:20.446Z,98115.72
2017-12-11T13:56:48.910Z,98124.06
2017-12-11T13:59:18.286Z,98123.28
2017-12-11T14:01:47.372Z,98104.23
2017-12-11T14:04:15.831Z,98091.63
2017-12-11T14:06:44.307Z,98078.59
2017-12-11T14:09:12.766Z,98073.94
2017-12-11T14:11:41.254Z,98072.25
2017-12-11T14:14:10.289Z,98068.34
2017-12-11T14:16:39.517Z,98057.71
2017-12-11T14:19:08.280Z,98061.71
2017-12-11T14:21:36.826Z,98070.26
2017-12-11T14:24:05.645Z,98070.05
2017-12-11T14:26:34.118Z,98066.76
2017-12-11T14:29:02.800Z,98072.41
2017-12-11T14:31:31.255Z,98065.55
2017-12-11T14:34:00.074Z,98080.72
2017-12-11T14:36:29.408Z,98093.03
2017-12-11T14:38:57.996Z,98101.63
2017-12-11T14:41:28.720Z,98100.02
2017-12-11T14:43:58.044Z,98089.29
2017-12-11T14:46:30.243Z,98082.53
2017-12-11T14:49:00.205Z,98079.74
2017-12-11T14:51:29.033Z,98082.56
2017-12-11T14:53:58.280Z,98084.08
2017-12-11T14:56:27.716Z,98079.37
2017-12-11T14:58:56.635Z,98075.21
2017-12-11T15:01:25.540Z,98067.92
2017-12-11T15:03:54.556Z,98054.93
2017-12-11T15:06:23.086Z,98062.08
2017-12-11T15:08:51.575Z,98055.93
2017-12-11T15:11:20.444Z,98057.39
2017-12-11T15:13:49.101Z,98062.18
2017-12-11T15:16:17.929Z,98058.39
2017-12-11T15:18:46.713Z,98042.28
2017-12-11T15:21:15.310Z,98045.36
2017-12-11T15:23:43.845Z,98049.06
2017-12-11T15:26:12.351Z,98039.47
2017-12-11T15:28:40.831Z,98040.56
2017-12-11T15:31:09.526Z,98028.59
2017-12-11T15:33:38.008Z,98033.39
2017-12-11T15:36:07.710Z,98042.14
2017-12-11T15:38:37.290Z,98048.13
2017-12-11T15:41:10.423Z,98052.98
2017-12-11T15:43:43.027Z,98044.41
2017-12-11T15:46:13.586Z,98048.80
2017-12-11T15:48:43.343Z,98037.00
2017-12-11T15:51:13.622Z,98038.69
2017-12-11T15:53:42.188Z,98038.87
2017-12-11T15:56:11.278Z,98040.00
2017-12-11T15:58:41.302Z,98040.73
2017-12-11T16:01:10.667Z,98044.14
2017-12-11T16:03:39.271Z,98043.92
2017-12-11T16:06:07.870Z,98041.75
2017-12-11T16:08:36.352Z,98032.00
2017-12-11T16:11:06.858Z,98033.23
2017-12-11T16:13:36.266Z,98032.98
2017-12-11T16:16:05.013Z,98030.44
2017-12-11T16:18:34.078Z,98025.64
2017-12-11T16:21:02.804Z,98022.48
2017-12-11T16:23:32.124Z,98018.15
2017-12-11T16:26:04.486Z,98010.63
2017-12-11T16:28:34.192Z,98016.38
2017-12-11T16:31:02.701Z,98027.50
2017-12-11T16:33:31.342Z,98026.73
2017-12-11T16:35:59.832Z,98021.45
2017-12-11T16:38:28.486Z,98032.40
2017-12-11T16:40:56.981Z,98025.94
2017-12-11T16:43:25.645Z,98034.34
2017-12-11T16:45:54.157Z,98020.08
2017-12-11T16:48:22.797Z,98025.83
2017-12-11T16:50:51.309Z,98024.45
2017-12-11T16:53:19.961Z,98020.67
2017-12-11T16:55:48.435Z,98029.27
2017-12-11T16:58:19.932Z,98023.12
2017-12-11T17:00:49.569Z,98022.72
2017-12-11T17:03:18.770Z,98020.16
2017-12-11T17:05:47.321Z,98015.58
2017-12-11T17:08:16.290Z,98014.41
2017-12-11T17:10:44.902Z,98017.04
2017-12-11T17:13:13.561Z,98015.99
2017-12-11T17:15:42.216Z,98017.20
2017-12-11T17:18:12.292Z,98020.05
2017-12-11T17:20:43.706Z,98014.65
2017-12-11T17:23:14.154Z,98010.89
2017-12-11T17:25:45.198Z,98013.26
2017-12-11T17:28:14.362Z,98012.28
2017-12-11T17:30:42.841Z,98009.73
2017-12-11T17:33:11.318Z,98010.47
2017-12-11T17:35:40.460Z,98008.50
2017-12-11T17:38:09.128Z,98007.30
2017-12-11T17:40:37.611Z,98007.50
2017-12-11T17:43:06.308Z,98001.94
2017-12-11T17:45:34.795Z,98005.64
2017-12-11T17:48:04.620Z,97999.08
2017-12-11T17:50:33.119Z,98002.22
2017-12-11T17:53:01.578Z,98000.73
2017-12-11T17:55:30.245Z,98002.54
2017-12-11T17:57:58.771Z,97999.97
2017-12-11T18:00:34.194Z,98011.27
2017-12-11T18:03:02.865Z,98006.30
2017-12-11T18:05:31.562Z,98015.25
2017-12-11T18:08:00.207Z,98012.48
2017-12-11T18:10:28.701Z,98017.78
2017-12-11T18:12:57.769Z,98010.31
2017-12-11T18:15:26.250Z,98007.69
2017-12-11T18:17:54.683Z,98010.03
2017-12-11T18:20:26.505Z,98004.74
2017-12-11T18:22:56.726Z,98009.89
2017-12-11T18:25:25.574Z,98013.90
2017-12-11T18:27:56.047Z,98007.30
2017-12-11T18:30:24.797Z,98010.63
2017-12-11T18:32:56.401Z,98016.45
2017-12-11T18:35:27.609Z,98031.52
2017-12-11T18:37:56.106Z,98037.75
2017-12-11T18:40:24.880Z,98039.61
2017-12-11T18:42:53.371Z,98042.39
2017-12-11T18:45:24.288Z,98037.80
2017-12-11T18:47:56.476Z,98045.69
2017-12-11T18:50:25.957Z,98042.70
2017-12-11T18:52:54.489Z,98041.78
2017-12-11T18:55:23.555Z,98038.14
2017-12-11T18:57:52.543Z,98024.02
2017-12-11T19:00:21.347Z,98015.95
2017-12-11T19:02:50.673Z,98013.16
2017-12-11T19:05:19.462Z,98015.53
2017-12-11T19:07:48.110Z,98018.31
2017-12-11T19:10:17.322Z,98015.27
2017-12-11T19:12:47.145Z,98018.31
2017-12-11T19:15:19.723Z,98021.49
2017-12-11T19:17:49.548Z,98013.58
2017-12-11T19:20:18.164Z,98014.18
2017-12-11T19:22:46.838Z,97992.91
2017-12-11T19:25:15.412Z,97986.34
2017-12-11T19:27:43.901Z,97984.14
2017-12-11T19:30:13.220Z,97990.30
2017-12-11T19:32:41.846Z,97991.88
2017-12-11T19:35:10.591Z,97981.16
2017-12-11T19:37:39.107Z,97968.42
2017-12-11T19:40:07.646Z,97973.22
2017-12-11T19:42:36.163Z,97988.91
2017-12-11T19:45:05.201Z,97958.20
2017-12-11T19:47:33.681Z,97944.50
2017-12-11T19:50:02.128Z,97933.02
2017-12-11T19:52:30.740Z,97936.33
2017-12-11T19:54:59.177Z,97970.34
2017-12-11T19:57:27.969Z,97972.02
2017-12-11T19:59:58.497Z,97980.76
2017-12-11T20:02:31.058Z,97977.19
2017-12-11T20:05:02.301Z,97995.66
2017-12-11T20:07:31.265Z,98014.90
2017-12-11T20:09:59.738Z,98031.99
2017-12-11T20:12:28.400Z,98014.53
2017-12-11T20:14:58.970Z,98010.96
2017-12-11T20:17:28.073Z,98013.56
2017-12-11T20:19:56.512Z,98011.30
2017-12-11T20:22:25.071Z,98008.80
2017-12-11T20:24:53.658Z,98011.37
2017-12-11T20:27:22.157Z,98015.14
2017-12-11T20:29:50.833Z,97999.03
2017-12-11T20:32:19.356Z,97999.16
2017-12-11T20:34:48.024Z,98012.30
2017-12-11T20:37:16.716Z,98013.44
2017-12-11T20:39:45.261Z,97988.35
2017-12-11T20:42:13.860Z,97990.46
2017-12-11T20:44:42.849Z,97995.48
2017-12-11T20:47:11.500Z,97997.88
2017-12-11T20:49:39.948Z,98001.89
2017-12-11T20:52:08.602Z,98001.83
2017-12-11T20:54:37.141Z,98018.08
2017-12-11T20:57:05.714Z,98025.45
2017-12-11T20:59:34.316Z,98020.10
2017-12-11T21:02:03.753Z,98048.08
2017-12-11T21:04:32.236Z,98022.56
2017-12-11T21:07:00.718Z,98026.69
2017-12-11T21:09:29.272Z,98046.38
2017-12-11T21:11:57.993Z,98042.62
2017-12-11T21:14:26.444Z,98021.69
2017-12-11T21:16:54.993Z,98040.20
2017-12-11T21:19:23.474Z,98031.78
2017-12-11T21:21:51.969Z,98074.59
2017-12-11T21:24:20.494Z,98086.30
2017-12-11T21:26:48.977Z,98094.98
2017-12-11T21:29:17.561Z,98107.05
2017-12-11T21:31:46.180Z,98104.03
2017-12-11T21:34:14.747Z,98110.59
2017-12-11T21:36:43.433Z,98114.16
2017-12-11T21:39:12.010Z,98114.50
2017-12-11T21:41:43.538Z,98113.39
2017-12-11T21:44:13.301Z,98112.09
2017-12-11T21:46:42.238Z,98112.23
2017-12-11T21:49:13.120Z,98116.94
2017-12-11T21:51:42.830Z,98114.39
2017-12-11T21:54:11.497Z,98112.30
2017-12-11T21:56:40.841Z,98116.05
2017-12-11T21:59:09.629Z,98113.53
2017-12-11T22:01:38.132Z,98111.25
2017-12-11T22:04:06.823Z,98122.67
2017-12-11T22:06:35.338Z,98134.69
2017-12-11T22:09:07.842Z,98126.91
2017-12-11T22:11:37.025Z,98135.16
2017-12-11T22:14:05.702Z,98129.27
2017-12-11T22:16:34.390Z,98125.70
2017-12-11T22:19:02.941Z,98129.71
2017-12-11T22:21:31.547Z,98120.98
2017-12-11T22:24:00.218Z,98119.46
2017-12-11T22:26:28.753Z,98114.95
2017-12-11T22:29:00.072Z,98124.31
2017-12-11T22:31:28.944Z,98113.20
2017-12-11T22:33:57.485Z,98116.50
2017-12-11T22:36:26.506Z,98134.59
2017-12-11T22:38:55.090Z,98131.75
2017-12-11T22:41:25.363Z,98131.54
2017-12-11T22:43:54.214Z,98136.45
2017-12-11T22:46:23.332Z,98138.61
2017-12-11T22:48:51.995Z,98147.59
2017-12-11T22:51:20.555Z,98153.03
2017-12-11T22:53:49.065Z,98164.34
2017-12-11T22:56:17.597Z,98180.70
2017-12-11T22:58:46.205Z,98182.66
2017-12-11T23:01:14.817Z,98179.78
2017-12-11T23:03:43.321Z,98173.62
2017-12-11T23:06:11.996Z,98160.78
2017-12-11T23:08:40.918Z,98167.95
2017-12-11T23:11:09.434Z,98183.89
2017-12-11T23:13:38.022Z,98183.57
2017-12-11T23:16:06.626Z,98159.55
2017-12-11T23:18:35.150Z,98163.63
2017-12-11T23:21:03.612Z,98168.19
2017-12-11T23:23:32.101Z,98171.92
2017-12-11T23:26:00.612Z,98171.18
2017-12-11T23:28:29.342Z,98167.66
2017-12-11T23:30:58.009Z,98170.00
2017-12-11T23:33:26.592Z,98164.48
2017-12-11T23:35:55.218Z,98157.55
2017-12-11T23:38:23.862Z,98160.13
2017-12-11T23:40:52.367Z,98167.48
2017-12-11T23:43:20.932Z,98172.31
2017-12-11T23:46:51.940Z,98180.52
2017-12-11T23:49:20.425Z,98192.03
2017-12-11T23:51:48.922Z,98198.66
2017-12-11T23:54:26.263Z,98186.73
2017-12-11T23:56:54.772Z,98180.84
2017-12-11T23:59:23.355Z,98190.17
